sensor_id;sensor_type;location;lat;lon;timestamp;pressure;altitude;pressure_sealevel;temperature;humidity
73338;BME280;61575;49.908;35.556;2023-08-06T00:01:55;99163.56;;;22.83;74.35
73338;BME280;61575;49.908;35.556;2023-08-06T00:04:57;99154.78;;;22.80;74.30
73338;BME280;61575;49.908;35.556;2023-08-06T00:07:59;99157.53;;;22.80;74.43
73338;BME280;61575;49.908;35.556;2023-08-06T00:11:01;99156.13;;;22.78;74.32
73338;BME280;61575;49.908;35.556;2023-08-06T00:14:03;99150.91;;;22.76;74.94
73338;BME280;61575;49.908;35.556;2023-08-06T00:17:05;99159.97;;;22.77;74.45
73338;BME280;61575;49.908;35.556;2023-08-06T00:20:07;99153.59;;;22.71;75.06
73338;BME280;61575;49.908;35.556;2023-08-06T00:23:09;99140.44;;;22.68;75.05
73338;BME280;61575;49.908;35.556;2023-08-06T00:26:12;99146.75;;;22.69;74.51
73338;BME280;61575;49.908;35.556;2023-08-06T00:29:14;99141.53;;;22.67;74.49
73338;BME280;61575;49.908;35.556;2023-08-06T00:32:17;99149.16;;;22.65;74.54
73338;BME280;61575;49.908;35.556;2023-08-06T00:35:19;99139.00;;;22.61;74.72
73338;BME280;61575;49.908;35.556;2023-08-06T00:38:21;99137.34;;;22.60;75.11
73338;BME280;61575;49.908;35.556;2023-08-06T00:41:23;99132.94;;;22.59;75.06
73338;BME280;61575;49.908;35.556;2023-08-06T00:44:25;99122.25;;;22.57;75.01
73338;BME280;61575;49.908;35.556;2023-08-06T00:47:27;99116.22;;;22.55;75.26
73338;BME280;61575;49.908;35.556;2023-08-06T00:50:29;99121.38;;;22.52;75.99
73338;BME280;61575;49.908;35.556;2023-08-06T00:53:31;99116.41;;;22.48;75.21
73338;BME280;61575;49.908;35.556;2023-08-06T00:56:35;99113.69;;;22.48;75.46
73338;BME280;61575;49.908;35.556;2023-08-06T00:59:40;99110.38;;;22.46;75.40
73338;BME280;61575;49.908;35.556;2023-08-06T01:02:41;99112.53;;;22.44;75.71
73338;BME280;61575;49.908;35.556;2023-08-06T01:05:44;99111.38;;;22.40;75.70
73338;BME280;61575;49.908;35.556;2023-08-06T01:08:59;99106.41;;;22.37;76.21
73338;BME280;61575;49.908;35.556;2023-08-06T01:12:25;99105.28;;;22.33;76.09
73338;BME280;61575;49.908;35.556;2023-08-06T01:15:36;99101.41;;;22.29;76.42
73338;BME280;61575;49.908;35.556;2023-08-06T01:18:41;99112.91;;;22.31;76.12
73338;BME280;61575;49.908;35.556;2023-08-06T01:21:45;99111.25;;;22.30;76.33
73338;BME280;61575;49.908;35.556;2023-08-06T01:24:48;99105.22;;;22.28;76.39
73338;BME280;61575;49.908;35.556;2023-08-06T01:27:55;99103.81;;;22.26;76.30
73338;BME280;61575;49.908;35.556;2023-08-06T01:31:07;99108.97;;;22.22;76.40
73338;BME280;61575;49.908;35.556;2023-08-06T01:34:21;99111.13;;;22.20;76.44
73338;BME280;61575;49.908;35.556;2023-08-06T01:37:24;99103.69;;;22.15;76.46
73338;BME280;61575;49.908;35.556;2023-08-06T01:40:26;99094.09;;;22.13;76.52
73338;BME280;61575;49.908;35.556;2023-08-06T01:43:31;99094.84;;;22.08;76.92
73338;BME280;61575;49.908;35.556;2023-08-06T01:46:33;99101.91;;;22.04;76.97
73338;BME280;61575;49.908;35.556;2023-08-06T01:49:34;99100.53;;;22.02;77.06
73338;BME280;61575;49.908;35.556;2023-08-06T01:52:36;99105.41;;;22.00;77.25
73338;BME280;61575;49.908;35.556;2023-08-06T01:55:38;99105.66;;;21.98;77.34
73338;BME280;61575;49.908;35.556;2023-08-06T01:58:40;99102.63;;;21.95;77.34
73338;BME280;61575;49.908;35.556;2023-08-06T02:01:42;99103.13;;;21.92;77.47
73338;BME280;61575;49.908;35.556;2023-08-06T02:04:44;99101.97;;;21.88;77.57
73338;BME280;61575;49.908;35.556;2023-08-06T02:07:46;99103.06;;;21.87;77.66
73338;BME280;61575;49.908;35.556;2023-08-06T02:10:48;99095.94;;;21.86;77.66
73338;BME280;61575;49.908;35.556;2023-08-06T02:13:50;99096.75;;;21.86;77.55
73338;BME280;61575;49.908;35.556;2023-08-06T02:16:53;99104.13;;;21.86;77.74
73338;BME280;61575;49.908;35.556;2023-08-06T02:19:55;99094.28;;;21.84;77.65
73338;BME280;61575;49.908;35.556;2023-08-06T02:22:58;99095.38;;;21.83;77.60
73338;BME280;61575;49.908;35.556;2023-08-06T02:26:04;99093.72;;;21.82;78.01
73338;BME280;61575;49.908;35.556;2023-08-06T02:29:06;99096.44;;;21.82;77.57
73338;BME280;61575;49.908;35.556;2023-08-06T02:32:09;99087.41;;;21.82;77.77
73338;BME280;61575;49.908;35.556;2023-08-06T02:35:11;99093.13;;;21.80;77.71
73338;BME280;61575;49.908;35.556;2023-08-06T02:38:13;99094.72;;;21.76;78.57
73338;BME280;61575;49.908;35.556;2023-08-06T02:41:15;99080.56;;;21.79;77.82
73338;BME280;61575;49.908;35.556;2023-08-06T02:44:17;99084.69;;;21.82;77.66
73338;BME280;61575;49.908;35.556;2023-08-06T02:47:19;99077.06;;;21.84;77.67
73338;BME280;61575;49.908;35.556;2023-08-06T02:50:21;99081.19;;;21.87;77.80
73338;BME280;61575;49.908;35.556;2023-08-06T02:53:23;99082.91;;;21.93;77.61
73338;BME280;61575;49.908;35.556;2023-08-06T02:56:25;99080.16;;;21.93;78.03
73338;BME280;61575;49.908;35.556;2023-08-06T02:59:36;99087.88;;;21.96;77.98
73338;BME280;61575;49.908;35.556;2023-08-06T03:02:43;99090.09;;;21.99;78.17
73338;BME280;61575;49.908;35.556;2023-08-06T03:06:01;99077.56;;;22.03;77.93
73338;BME280;61575;49.908;35.556;2023-08-06T03:09:18;99080.34;;;22.08;77.87
73338;BME280;61575;49.908;35.556;2023-08-06T03:12:22;99082.66;;;22.16;77.75
73338;BME280;61575;49.908;35.556;2023-08-06T03:15:24;99084.63;;;22.21;77.47
73338;BME280;61575;49.908;35.556;2023-08-06T03:18:27;99092.88;;;22.26;77.25
73338;BME280;61575;49.908;35.556;2023-08-06T03:21:32;99086.38;;;22.32;76.95
73338;BME280;61575;49.908;35.556;2023-08-06T03:24:34;99090.81;;;22.38;76.82
73338;BME280;61575;49.908;35.556;2023-08-06T03:27:36;99089.81;;;22.44;76.93
73338;BME280;61575;49.908;35.556;2023-08-06T03:30:38;99092.34;;;22.51;76.38
73338;BME280;61575;49.908;35.556;2023-08-06T03:33:43;99093.22;;;22.56;76.21
73338;BME280;61575;49.908;35.556;2023-08-06T03:36:50;99086.22;;;22.65;75.96
73338;BME280;61575;49.908;35.556;2023-08-06T03:39:52;99091.47;;;22.72;75.66
73338;BME280;61575;49.908;35.556;2023-08-06T03:42:56;99095.91;;;22.78;75.51
73338;BME280;61575;49.908;35.556;2023-08-06T03:45:58;99091.59;;;22.87;75.25
73338;BME280;61575;49.908;35.556;2023-08-06T03:49:00;99093.59;;;22.97;74.89
73338;BME280;61575;49.908;35.556;2023-08-06T03:52:02;99087.41;;;23.06;74.71
73338;BME280;61575;49.908;35.556;2023-08-06T03:55:04;99085.81;;;23.16;74.73
73338;BME280;61575;49.908;35.556;2023-08-06T03:58:06;99088.97;;;23.29;74.12
73338;BME280;61575;49.908;35.556;2023-08-06T04:01:08;99093.72;;;23.44;73.47
73338;BME280;61575;49.908;35.556;2023-08-06T04:04:19;99098.81;;;23.67;72.63
73338;BME280;61575;49.908;35.556;2023-08-06T04:07:21;99086.88;;;23.89;71.85
73338;BME280;61575;49.908;35.556;2023-08-06T04:10:23;99087.53;;;24.11;71.01
73338;BME280;61575;49.908;35.556;2023-08-06T04:13:25;99084.31;;;24.34;70.18
73338;BME280;61575;49.908;35.556;2023-08-06T04:16:27;99073.63;;;24.53;69.39
73338;BME280;61575;49.908;35.556;2023-08-06T04:19:29;99073.44;;;24.80;68.56
73338;BME280;61575;49.908;35.556;2023-08-06T04:22:31;99071.47;;;24.96;67.78
73338;BME280;61575;49.908;35.556;2023-08-06T04:25:33;99074.50;;;25.15;66.57
73338;BME280;61575;49.908;35.556;2023-08-06T04:28:35;99073.94;;;25.43;65.89
73338;BME280;61575;49.908;35.556;2023-08-06T04:31:37;99070.34;;;25.58;65.02
73338;BME280;61575;49.908;35.556;2023-08-06T04:34:39;99068.88;;;25.86;64.43
73338;BME280;61575;49.908;35.556;2023-08-06T04:37:41;99068.31;;;25.94;64.27
73338;BME280;61575;49.908;35.556;2023-08-06T04:40:45;99075.66;;;26.14;63.76
73338;BME280;61575;49.908;35.556;2023-08-06T04:43:47;99067.94;;;26.16;62.72
73338;BME280;61575;49.908;35.556;2023-08-06T04:46:49;99068.69;;;26.31;62.26
73338;BME280;61575;49.908;35.556;2023-08-06T04:49:51;99067.22;;;26.44;62.00
73338;BME280;61575;49.908;35.556;2023-08-06T04:52:53;99066.88;;;26.61;61.59
73338;BME280;61575;49.908;35.556;2023-08-06T04:55:56;99061.50;;;26.80;61.16
73338;BME280;61575;49.908;35.556;2023-08-06T04:58:59;99063.00;;;27.01;60.40
73338;BME280;61575;49.908;35.556;2023-08-06T05:02:01;99057.28;;;27.26;60.15
73338;BME280;61575;49.908;35.556;2023-08-06T05:05:03;99049.78;;;27.32;58.83
73338;BME280;61575;49.908;35.556;2023-08-06T05:08:06;99046.44;;;27.59;58.94
73338;BME280;61575;49.908;35.556;2023-08-06T05:11:09;99040.00;;;27.69;58.52
73338;BME280;61575;49.908;35.556;2023-08-06T05:14:11;99041.88;;;27.97;58.16
73338;BME280;61575;49.908;35.556;2023-08-06T05:17:13;99049.22;;;28.07;56.79
73338;BME280;61575;49.908;35.556;2023-08-06T05:20:15;99035.63;;;28.10;56.22
73338;BME280;61575;49.908;35.556;2023-08-06T05:23:17;99038.50;;;28.24;56.10
73338;BME280;61575;49.908;35.556;2023-08-06T05:26:19;99034.31;;;28.27;54.59
73338;BME280;61575;49.908;35.556;2023-08-06T05:29:21;99023.19;;;28.32;55.18
73338;BME280;61575;49.908;35.556;2023-08-06T05:32:23;99022.22;;;28.60;54.65
73338;BME280;61575;49.908;35.556;2023-08-06T05:35:25;99019.53;;;28.74;54.02
73338;BME280;61575;49.908;35.556;2023-08-06T05:38:27;99017.13;;;28.86;53.92
73338;BME280;61575;49.908;35.556;2023-08-06T05:41:29;99019.56;;;29.06;53.42
73338;BME280;61575;49.908;35.556;2023-08-06T05:44:30;99019.19;;;29.27;53.62
73338;BME280;61575;49.908;35.556;2023-08-06T05:47:32;99014.91;;;29.34;52.60
73338;BME280;61575;49.908;35.556;2023-08-06T05:50:34;99017.25;;;29.41;52.12
73338;BME280;61575;49.908;35.556;2023-08-06T05:53:36;99005.28;;;29.45;51.93
73338;BME280;61575;49.908;35.556;2023-08-06T05:56:38;99013.00;;;29.48;50.95
73338;BME280;61575;49.908;35.556;2023-08-06T05:59:40;99012.16;;;29.75;51.20
73338;BME280;61575;49.908;35.556;2023-08-06T06:02:42;99011.88;;;29.77;50.48
73338;BME280;61575;49.908;35.556;2023-08-06T06:05:44;99006.41;;;29.86;50.19
73338;BME280;61575;49.908;35.556;2023-08-06T06:08:46;99009.78;;;29.96;49.50
73338;BME280;61575;49.908;35.556;2023-08-06T06:11:49;99016.03;;;30.02;49.50
73338;BME280;61575;49.908;35.556;2023-08-06T06:14:52;99005.88;;;30.11;49.41
73338;BME280;61575;49.908;35.556;2023-08-06T06:17:54;99007.47;;;30.26;48.97
73338;BME280;61575;49.908;35.556;2023-08-06T06:20:56;99007.25;;;30.36;48.83
73338;BME280;61575;49.908;35.556;2023-08-06T06:23:58;99006.50;;;30.44;48.10
73338;BME280;61575;49.908;35.556;2023-08-06T06:27:00;99001.38;;;30.73;48.37
73338;BME280;61575;49.908;35.556;2023-08-06T06:30:02;98993.66;;;30.93;48.06
73338;BME280;61575;49.908;35.556;2023-08-06T06:33:05;98992.59;;;31.02;47.02
73338;BME280;61575;49.908;35.556;2023-08-06T06:36:07;98996.03;;;31.08;46.60
73338;BME280;61575;49.908;35.556;2023-08-06T06:39:09;99003.94;;;31.46;47.17
73338;BME280;61575;49.908;35.556;2023-08-06T06:42:11;98999.47;;;31.36;46.47
73338;BME280;61575;49.908;35.556;2023-08-06T06:45:18;98989.88;;;31.42;45.86
73338;BME280;61575;49.908;35.556;2023-08-06T06:48:20;98995.31;;;31.56;45.79
73338;BME280;61575;49.908;35.556;2023-08-06T06:51:22;98985.50;;;31.50;44.99
73338;BME280;61575;49.908;35.556;2023-08-06T06:54:24;98985.31;;;31.46;45.19
73338;BME280;61575;49.908;35.556;2023-08-06T06:57:26;98975.47;;;31.71;45.39
73338;BME280;61575;49.908;35.556;2023-08-06T07:00:28;98975.34;;;31.93;44.92
73338;BME280;61575;49.908;35.556;2023-08-06T07:03:30;98978.50;;;32.09;44.92
73338;BME280;61575;49.908;35.556;2023-08-06T07:06:32;98975.75;;;32.26;44.25
73338;BME280;61575;49.908;35.556;2023-08-06T07:09:34;98962.84;;;32.48;44.24
73338;BME280;61575;49.908;35.556;2023-08-06T07:12:36;98967.09;;;32.71;43.76
73338;BME280;61575;49.908;35.556;2023-08-06T07:15:38;98961.19;;;32.73;43.57
73338;BME280;61575;49.908;35.556;2023-08-06T07:18:40;98964.75;;;32.90;42.95
73338;BME280;61575;49.908;35.556;2023-08-06T07:21:42;98962.94;;;33.03;42.74
73338;BME280;61575;49.908;35.556;2023-08-06T07:24:44;98951.75;;;33.20;42.77
73338;BME280;61575;49.908;35.556;2023-08-06T07:27:46;98952.84;;;33.37;42.23
73338;BME280;61575;49.908;35.556;2023-08-06T07:30:48;98950.47;;;33.56;41.58
73338;BME280;61575;49.908;35.556;2023-08-06T07:33:50;98951.50;;;33.43;41.44
73338;BME280;61575;49.908;35.556;2023-08-06T07:36:52;98946.91;;;33.47;41.71
73338;BME280;61575;49.908;35.556;2023-08-06T07:39:57;98937.31;;;33.65;41.40
73338;BME280;61575;49.908;35.556;2023-08-06T07:43:00;98944.69;;;33.61;40.99
73338;BME280;61575;49.908;35.556;2023-08-06T07:46:02;98936.72;;;33.51;40.91
73338;BME280;61575;49.908;35.556;2023-08-06T07:49:04;98933.69;;;33.73;41.55
73338;BME280;61575;49.908;35.556;2023-08-06T07:52:06;98917.81;;;33.94;41.33
73338;BME280;61575;49.908;35.556;2023-08-06T07:55:08;98927.19;;;33.90;40.36
73338;BME280;61575;49.908;35.556;2023-08-06T07:58:10;98919.50;;;34.08;40.09
73338;BME280;61575;49.908;35.556;2023-08-06T08:01:12;98914.41;;;34.10;39.89
73338;BME280;61575;49.908;35.556;2023-08-06T08:04:14;98913.13;;;34.07;39.69
73338;BME280;61575;49.908;35.556;2023-08-06T08:07:16;98915.31;;;34.22;39.78
73338;BME280;61575;49.908;35.556;2023-08-06T08:10:18;98922.19;;;34.25;39.55
73338;BME280;61575;49.908;35.556;2023-08-06T08:13:20;98921.69;;;34.23;38.66
73338;BME280;61575;49.908;35.556;2023-08-06T08:16:22;98913.81;;;34.25;38.77
73338;BME280;61575;49.908;35.556;2023-08-06T08:19:24;98920.94;;;34.35;38.47
73338;BME280;61575;49.908;35.556;2023-08-06T08:22:26;98906.41;;;34.62;39.14
73338;BME280;61575;49.908;35.556;2023-08-06T08:25:29;98917.16;;;34.72;38.28
73338;BME280;61575;49.908;35.556;2023-08-06T08:28:32;98908.63;;;34.69;38.11
73338;BME280;61575;49.908;35.556;2023-08-06T08:31:34;98910.06;;;34.75;37.82
73338;BME280;61575;49.908;35.556;2023-08-06T08:34:41;98911.03;;;34.91;37.92
73338;BME280;61575;49.908;35.556;2023-08-06T08:37:43;98901.50;;;34.92;37.94
73338;BME280;61575;49.908;35.556;2023-08-06T08:40:46;98906.75;;;34.94;37.13
73338;BME280;61575;49.908;35.556;2023-08-06T08:43:51;98893.63;;;35.06;37.60
73338;BME280;61575;49.908;35.556;2023-08-06T08:46:53;98897.34;;;35.10;37.25
73338;BME280;61575;49.908;35.556;2023-08-06T08:49:56;98897.03;;;35.24;38.00
73338;BME280;61575;49.908;35.556;2023-08-06T08:52:59;98891.66;;;35.43;37.42
73338;BME280;61575;49.908;35.556;2023-08-06T08:56:02;98889.81;;;35.23;36.99
73338;BME280;61575;49.908;35.556;2023-08-06T08:59:03;98886.06;;;35.31;37.24
73338;BME280;61575;49.908;35.556;2023-08-06T09:02:09;98886.69;;;35.25;37.33
73338;BME280;61575;49.908;35.556;2023-08-06T09:05:12;98895.94;;;35.16;36.40
73338;BME280;61575;49.908;35.556;2023-08-06T09:08:18;98895.06;;;35.25;36.93
73338;BME280;61575;49.908;35.556;2023-08-06T09:11:21;98879.69;;;35.31;36.80
73338;BME280;61575;49.908;35.556;2023-08-06T09:14:23;98882.22;;;35.48;36.69
73338;BME280;61575;49.908;35.556;2023-08-06T09:17:25;98884.78;;;35.65;37.15
73338;BME280;61575;49.908;35.556;2023-08-06T09:20:27;98885.34;;;35.83;37.05
73338;BME280;61575;49.908;35.556;2023-08-06T09:23:30;98867.44;;;35.72;36.48
73338;BME280;61575;49.908;35.556;2023-08-06T09:26:33;98862.03;;;35.91;36.52
73338;BME280;61575;49.908;35.556;2023-08-06T09:29:40;98862.69;;;36.12;36.38
73338;BME280;61575;49.908;35.556;2023-08-06T09:32:46;98863.19;;;36.30;36.40
73338;BME280;61575;49.908;35.556;2023-08-06T09:35:54;98856.69;;;36.26;35.41
73338;BME280;61575;49.908;35.556;2023-08-06T09:38:56;98855.22;;;36.04;35.10
73338;BME280;61575;49.908;35.556;2023-08-06T09:42:00;98846.22;;;36.11;36.34
73338;BME280;61575;49.908;35.556;2023-08-06T09:45:06;98841.13;;;36.01;35.16
73338;BME280;61575;49.908;35.556;2023-08-06T09:48:09;98843.47;;;35.99;35.31
73338;BME280;61575;49.908;35.556;2023-08-06T09:51:12;98835.81;;;35.96;34.94
73338;BME280;61575;49.908;35.556;2023-08-06T09:54:15;98838.78;;;36.15;34.92
73338;BME280;61575;49.908;35.556;2023-08-06T09:57:29;98833.66;;;36.17;35.03
73338;BME280;61575;49.908;35.556;2023-08-06T10:00:32;98833.66;;;36.17;34.78
73338;BME280;61575;49.908;35.556;2023-08-06T10:03:40;98832.88;;;36.32;34.90
73338;BME280;61575;49.908;35.556;2023-08-06T10:06:43;98829.56;;;36.42;35.46
73338;BME280;61575;49.908;35.556;2023-08-06T10:09:47;98831.44;;;36.38;34.60
73338;BME280;61575;49.908;35.556;2023-08-06T10:12:51;98828.13;;;36.48;34.62
73338;BME280;61575;49.908;35.556;2023-08-06T10:15:54;98814.13;;;36.48;34.71
73338;BME280;61575;49.908;35.556;2023-08-06T10:18:56;98819.81;;;36.36;34.97
73338;BME280;61575;49.908;35.556;2023-08-06T10:22:11;98812.19;;;36.21;34.56
73338;BME280;61575;49.908;35.556;2023-08-06T10:25:17;98807.16;;;36.27;34.22
73338;BME280;61575;49.908;35.556;2023-08-06T10:28:19;98813.03;;;36.37;34.25
73338;BME280;61575;49.908;35.556;2023-08-06T10:31:59;98804.84;;;36.44;33.94
73338;BME280;61575;49.908;35.556;2023-08-06T10:35:02;98802.22;;;36.51;34.26
73338;BME280;61575;49.908;35.556;2023-08-06T10:38:18;98799.84;;;36.66;33.90
73338;BME280;61575;49.908;35.556;2023-08-06T10:41:27;98789.28;;;36.59;33.98
73338;BME280;61575;49.908;35.556;2023-08-06T10:44:30;98788.38;;;36.87;33.59
73338;BME280;61575;49.908;35.556;2023-08-06T10:47:38;98783.66;;;36.91;32.97
73338;BME280;61575;49.908;35.556;2023-08-06T10:50:45;98784.84;;;36.90;33.34
73338;BME280;61575;49.908;35.556;2023-08-06T10:53:50;98778.97;;;36.95;32.59
73338;BME280;61575;49.908;35.556;2023-08-06T10:56:52;98778.97;;;36.95;32.47
73338;BME280;61575;49.908;35.556;2023-08-06T10:59:54;98763.44;;;36.97;32.62
73338;BME280;61575;49.908;35.556;2023-08-06T11:03:16;98764.16;;;36.94;33.08
73338;BME280;61575;49.908;35.556;2023-08-06T11:06:22;98765.34;;;37.09;32.52
73338;BME280;61575;49.908;35.556;2023-08-06T11:09:24;98756.38;;;37.03;32.60
73338;BME280;61575;49.908;35.556;2023-08-06T11:12:28;98753.78;;;36.95;32.08
73338;BME280;61575;49.908;35.556;2023-08-06T11:15:30;98746.91;;;37.08;32.38
73338;BME280;61575;49.908;35.556;2023-08-06T11:18:33;98736.91;;;37.07;32.80
73338;BME280;61575;49.908;35.556;2023-08-06T11:21:35;98741.94;;;37.01;31.79
73338;BME280;61575;49.908;35.556;2023-08-06T11:24:39;98738.06;;;37.06;31.55
73338;BME280;61575;49.908;35.556;2023-08-06T11:27:41;98739.59;;;37.03;30.68
73338;BME280;61575;49.908;35.556;2023-08-06T11:30:43;98728.06;;;37.05;30.94
73338;BME280;61575;49.908;35.556;2023-08-06T11:33:45;98728.50;;;37.07;31.50
73338;BME280;61575;49.908;35.556;2023-08-06T11:36:47;98715.19;;;37.20;31.61
73338;BME280;61575;49.908;35.556;2023-08-06T11:39:49;98711.94;;;37.02;31.42
73338;BME280;61575;49.908;35.556;2023-08-06T11:42:52;98704.38;;;37.02;31.24
73338;BME280;61575;49.908;35.556;2023-08-06T11:45:55;98703.81;;;37.12;30.31
73338;BME280;61575;49.908;35.556;2023-08-06T11:48:58;98702.38;;;37.03;31.09
73338;BME280;61575;49.908;35.556;2023-08-06T11:52:28;98707.34;;;37.09;30.25
73338;BME280;61575;49.908;35.556;2023-08-06T11:55:28;98696.91;;;36.91;29.66
73338;BME280;61575;49.908;35.556;2023-08-06T11:58:31;98695.53;;;37.00;30.85
73338;BME280;61575;49.908;35.556;2023-08-06T12:01:33;98681.44;;;36.97;30.48
73338;BME280;61575;49.908;35.556;2023-08-06T12:04:57;98693.00;;;36.95;30.08
73338;BME280;61575;49.908;35.556;2023-08-06T12:08:01;98688.13;;;36.92;29.50
73338;BME280;61575;49.908;35.556;2023-08-06T12:11:03;98677.38;;;36.94;30.44
73338;BME280;61575;49.908;35.556;2023-08-06T12:14:05;98673.63;;;36.87;30.52
73338;BME280;61575;49.908;35.556;2023-08-06T12:17:07;98685.47;;;36.80;30.04
73338;BME280;61575;49.908;35.556;2023-08-06T12:20:10;98679.53;;;36.66;30.43
73338;BME280;61575;49.908;35.556;2023-08-06T12:23:12;98680.84;;;36.88;30.32
73338;BME280;61575;49.908;35.556;2023-08-06T12:26:17;98679.56;;;36.85;30.05
73338;BME280;61575;49.908;35.556;2023-08-06T12:29:18;98684.09;;;36.90;30.66
73338;BME280;61575;49.908;35.556;2023-08-06T12:32:20;98667.28;;;36.90;30.00
73338;BME280;61575;49.908;35.556;2023-08-06T12:35:23;98679.13;;;36.83;30.06
73338;BME280;61575;49.908;35.556;2023-08-06T12:38:27;98669.59;;;36.68;30.54
73338;BME280;61575;49.908;35.556;2023-08-06T12:41:29;98662.19;;;36.76;29.95
73338;BME280;61575;49.908;35.556;2023-08-06T12:44:32;98662.50;;;36.90;30.48
73338;BME280;61575;49.908;35.556;2023-08-06T12:47:34;98653.13;;;36.82;30.09
73338;BME280;61575;49.908;35.556;2023-08-06T12:50:36;98652.09;;;36.71;30.10
73338;BME280;61575;49.908;35.556;2023-08-06T12:53:37;98661.19;;;36.53;30.26
73338;BME280;61575;49.908;35.556;2023-08-06T12:56:40;98649.75;;;36.42;30.16
73338;BME280;61575;49.908;35.556;2023-08-06T12:59:41;98653.72;;;36.41;29.72
73338;BME280;61575;49.908;35.556;2023-08-06T13:02:44;98644.16;;;36.42;30.04
73338;BME280;61575;49.908;35.556;2023-08-06T13:05:46;98642.47;;;36.22;30.54
73338;BME280;61575;49.908;35.556;2023-08-06T13:08:48;98642.66;;;36.13;30.50
73338;BME280;61575;49.908;35.556;2023-08-06T13:11:50;98642.72;;;36.16;29.62
73338;BME280;61575;49.908;35.556;2023-08-06T13:14:53;98641.03;;;36.12;29.42
73338;BME280;61575;49.908;35.556;2023-08-06T13:17:57;98640.44;;;36.06;29.05
73338;BME280;61575;49.908;35.556;2023-08-06T13:20:59;98634.22;;;35.97;29.83
73338;BME280;61575;49.908;35.556;2023-08-06T13:24:01;98629.25;;;35.91;30.30
73338;BME280;61575;49.908;35.556;2023-08-06T13:27:04;98637.47;;;35.83;29.77
73338;BME280;61575;49.908;35.556;2023-08-06T13:30:07;98625.38;;;35.79;30.54
73338;BME280;61575;49.908;35.556;2023-08-06T13:33:09;98619.97;;;35.71;30.82
73338;BME280;61575;49.908;35.556;2023-08-06T13:36:12;98615.44;;;35.66;30.26
73338;BME280;61575;49.908;35.556;2023-08-06T13:39:15;98620.44;;;35.61;31.00
73338;BME280;61575;49.908;35.556;2023-08-06T13:42:19;98620.06;;;35.46;30.71
73338;BME280;61575;49.908;35.556;2023-08-06T13:45:21;98620.97;;;35.50;30.70
73338;BME280;61575;49.908;35.556;2023-08-06T13:48:23;98621.50;;;35.40;30.89
73338;BME280;61575;49.908;35.556;2023-08-06T13:51:25;98607.63;;;35.44;31.02
73338;BME280;61575;49.908;35.556;2023-08-06T13:54:27;98603.50;;;35.53;31.29
73338;BME280;61575;49.908;35.556;2023-08-06T13:57:29;98603.81;;;35.36;31.36
73338;BME280;61575;49.908;35.556;2023-08-06T14:00:31;98601.06;;;35.52;32.07
73338;BME280;61575;49.908;35.556;2023-08-06T14:03:33;98603.03;;;35.51;31.93
73338;BME280;61575;49.908;35.556;2023-08-06T14:06:35;98588.53;;;35.46;31.25
73338;BME280;61575;49.908;35.556;2023-08-06T14:09:37;98593.72;;;35.32;31.28
73338;BME280;61575;49.908;35.556;2023-08-06T14:12:39;98595.63;;;35.28;31.31
73338;BME280;61575;49.908;35.556;2023-08-06T14:15:41;98591.22;;;35.27;31.58
73338;BME280;61575;49.908;35.556;2023-08-06T14:18:43;98598.59;;;35.35;31.09
73338;BME280;61575;49.908;35.556;2023-08-06T14:21:46;98587.25;;;35.28;30.77
73338;BME280;61575;49.908;35.556;2023-08-06T14:24:50;98594.38;;;35.25;30.62
73338;BME280;61575;49.908;35.556;2023-08-06T14:27:52;98589.59;;;35.26;31.08
73338;BME280;61575;49.908;35.556;2023-08-06T14:30:54;98591.84;;;35.20;31.08
73338;BME280;61575;49.908;35.556;2023-08-06T14:33:58;98588.91;;;35.16;30.60
73338;BME280;61575;49.908;35.556;2023-08-06T14:37:00;98592.50;;;35.29;31.38
73338;BME280;61575;49.908;35.556;2023-08-06T14:40:03;98585.91;;;35.21;31.11
73338;BME280;61575;49.908;35.556;2023-08-06T14:43:05;98589.59;;;35.26;31.46
73338;BME280;61575;49.908;35.556;2023-08-06T14:46:07;98582.66;;;35.19;31.24
73338;BME280;61575;49.908;35.556;2023-08-06T14:49:10;98587.88;;;35.09;31.48
73338;BME280;61575;49.908;35.556;2023-08-06T14:52:14;98585.00;;;35.05;31.34
73338;BME280;61575;49.908;35.556;2023-08-06T14:55:25;98572.06;;;34.85;31.36
73338;BME280;61575;49.908;35.556;2023-08-06T14:58:27;98567.03;;;34.90;31.60
73338;BME280;61575;49.908;35.556;2023-08-06T15:01:30;98568.06;;;34.98;31.41
73338;BME280;61575;49.908;35.556;2023-08-06T15:04:32;98565.75;;;34.88;31.43
73338;BME280;61575;49.908;35.556;2023-08-06T15:07:35;98562.06;;;34.84;31.77
73338;BME280;61575;49.908;35.556;2023-08-06T15:10:38;98559.66;;;34.70;31.88
73338;BME280;61575;49.908;35.556;2023-08-06T15:13:40;98559.31;;;34.59;32.19
73338;BME280;61575;49.908;35.556;2023-08-06T15:16:43;98560.97;;;34.48;32.50
73338;BME280;61575;49.908;35.556;2023-08-06T15:19:45;98559.81;;;34.37;32.61
73338;BME280;61575;49.908;35.556;2023-08-06T15:22:46;98556.81;;;34.30;32.94
73338;BME280;61575;49.908;35.556;2023-08-06T15:25:49;98560.38;;;34.18;33.40
73338;BME280;61575;49.908;35.556;2023-08-06T15:28:51;98560.50;;;33.98;33.87
73338;BME280;61575;49.908;35.556;2023-08-06T15:31:53;98552.78;;;33.70;34.09
73338;BME280;61575;49.908;35.556;2023-08-06T15:34:54;98553.13;;;33.56;34.76
73338;BME280;61575;49.908;35.556;2023-08-06T15:37:56;98554.00;;;33.36;34.98
73338;BME280;61575;49.908;35.556;2023-08-06T15:40:58;98557.91;;;33.23;35.39
73338;BME280;61575;49.908;35.556;2023-08-06T15:44:00;98561.69;;;33.18;35.57
73338;BME280;61575;49.908;35.556;2023-08-06T15:47:02;98557.34;;;33.09;35.67
73338;BME280;61575;49.908;35.556;2023-08-06T15:50:06;98558.81;;;32.94;36.08
73338;BME280;61575;49.908;35.556;2023-08-06T15:53:09;98553.19;;;32.82;36.76
73338;BME280;61575;49.908;35.556;2023-08-06T15:56:14;98556.03;;;32.73;37.04
73338;BME280;61575;49.908;35.556;2023-08-06T15:59:25;98557.03;;;32.68;37.28